sensor_id;sensor_type;location;lat;lon;timestamp;pressure;altitude;pressure_sealevel;temperature;humidity
79617;BME280;69097;52.132;5.422;2023-08-12T00:00:00;101898.34;;;19.95;85.79
79617;BME280;69097;52.132;5.422;2023-08-12T00:02:34;101900.41;;;19.94;85.94
79617;BME280;69097;52.132;5.422;2023-08-12T00:05:00;101908.94;;;19.94;86.21
79617;BME280;69097;52.132;5.422;2023-08-12T00:07:27;101909.41;;;19.93;86.32
79617;BME280;69097;52.132;5.422;2023-08-12T00:09:53;101908.94;;;19.94;85.95
79617;BME280;69097;52.132;5.422;2023-08-12T00:12:20;101895.66;;;19.91;85.92
79617;BME280;69097;52.132;5.422;2023-08-12T00:14:46;101896.13;;;19.90;86.64
79617;BME280;69097;52.132;5.422;2023-08-12T00:17:13;101903.44;;;19.91;86.32
79617;BME280;69097;52.132;5.422;2023-08-12T00:19:39;101908.66;;;19.92;86.13
79617;BME280;69097;52.132;5.422;2023-08-12T00:22:06;101896.47;;;19.92;86.45
79617;BME280;69097;52.132;5.422;2023-08-12T00:24:32;101890.44;;;19.90;86.06
79617;BME280;69097;52.132;5.422;2023-08-12T00:26:59;101902.31;;;19.88;86.18
79617;BME280;69097;52.132;5.422;2023-08-12T00:29:25;101901.19;;;19.86;85.76
79617;BME280;69097;52.132;5.422;2023-08-12T00:31:52;101896.44;;;19.83;85.82
79617;BME280;69097;52.132;5.422;2023-08-12T00:34:20;101885.19;;;19.79;86.20
79617;BME280;69097;52.132;5.422;2023-08-12T00:36:47;101886.13;;;19.76;86.48
79617;BME280;69097;52.132;5.422;2023-08-12T00:39:13;101884.56;;;19.75;86.54
79617;BME280;69097;52.132;5.422;2023-08-12T00:41:40;101882.50;;;19.76;86.71
79617;BME280;69097;52.132;5.422;2023-08-12T00:44:08;101865.88;;;19.74;86.95
79617;BME280;69097;52.132;5.422;2023-08-12T00:46:35;101873.31;;;19.72;86.55
79617;BME280;69097;52.132;5.422;2023-08-12T00:49:03;101864.47;;;19.70;86.87
79617;BME280;69097;52.132;5.422;2023-08-12T00:51:30;101864.94;;;19.68;86.49
79617;BME280;69097;52.132;5.422;2023-08-12T00:53:58;101861.28;;;19.68;86.64
79617;BME280;69097;52.132;5.422;2023-08-12T00:56:26;101853.53;;;19.68;86.80
79617;BME280;69097;52.132;5.422;2023-08-12T00:58:53;101854.03;;;19.67;86.93
79617;BME280;69097;52.132;5.422;2023-08-12T01:01:20;101852.13;;;19.64;86.66
79617;BME280;69097;52.132;5.422;2023-08-12T01:03:47;101859.06;;;19.63;86.51
79617;BME280;69097;52.132;5.422;2023-08-12T01:06:13;101848.63;;;19.59;86.59
79617;BME280;69097;52.132;5.422;2023-08-12T01:08:40;101855.59;;;19.58;86.68
79617;BME280;69097;52.132;5.422;2023-08-12T01:11:15;101847.97;;;19.55;86.48
79617;BME280;69097;52.132;5.422;2023-08-12T01:16:33;101847.03;;;19.49;87.03
79617;BME280;69097;52.132;5.422;2023-08-12T01:19:05;101840.19;;;19.47;86.88
79617;BME280;69097;52.132;5.422;2023-08-12T01:21:33;101834.22;;;19.45;87.06
79617;BME280;69097;52.132;5.422;2023-08-12T01:24:03;101840.38;;;19.43;86.89
79617;BME280;69097;52.132;5.422;2023-08-12T01:26:29;101837.22;;;19.41;87.00
79617;BME280;69097;52.132;5.422;2023-08-12T01:28:56;101834.03;;;19.39;86.54
79617;BME280;69097;52.132;5.422;2023-08-12T01:31:45;101830.84;;;19.37;87.00
79617;BME280;69097;52.132;5.422;2023-08-12T01:34:44;101831.00;;;19.34;87.14
79617;BME280;69097;52.132;5.422;2023-08-12T01:37:08;101828.63;;;19.32;87.02
79617;BME280;69097;52.132;5.422;2023-08-12T01:39:36;101820.56;;;19.31;87.42
79617;BME280;69097;52.132;5.422;2023-08-12T01:42:04;101827.06;;;19.31;87.80
79617;BME280;69097;52.132;5.422;2023-08-12T01:44:32;101812.38;;;19.33;87.55
79617;BME280;69097;52.132;5.422;2023-08-12T01:46:59;101807.44;;;19.33;87.70
79617;BME280;69097;52.132;5.422;2023-08-12T01:49:27;101808.25;;;19.34;87.51
79617;BME280;69097;52.132;5.422;2023-08-12T01:51:53;101812.38;;;19.33;87.49
79617;BME280;69097;52.132;5.422;2023-08-12T01:54:20;101802.69;;;19.30;87.74
79617;BME280;69097;52.132;5.422;2023-08-12T01:56:48;101805.88;;;19.32;87.91
79617;BME280;69097;52.132;5.422;2023-08-12T01:59:15;101806.66;;;19.33;87.75
79617;BME280;69097;52.132;5.422;2023-08-12T02:01:41;101792.91;;;19.31;87.84
79617;BME280;69097;52.132;5.422;2023-08-12T02:04:08;101796.53;;;19.32;88.42
79617;BME280;69097;52.132;5.422;2023-08-12T02:06:34;101794.50;;;19.32;88.69
79617;BME280;69097;52.132;5.422;2023-08-12T02:09:01;101789.59;;;19.33;88.72
79617;BME280;69097;52.132;5.422;2023-08-12T02:11:27;101789.13;;;19.34;88.42
79617;BME280;69097;52.132;5.422;2023-08-12T02:13:54;101783.75;;;19.36;88.12
79617;BME280;69097;52.132;5.422;2023-08-12T02:16:20;101777.75;;;19.34;88.17
79617;BME280;69097;52.132;5.422;2023-08-12T02:18:47;101787.84;;;19.35;88.42
79617;BME280;69097;52.132;5.422;2023-08-12T02:21:14;101780.44;;;19.38;87.78
79617;BME280;69097;52.132;5.422;2023-08-12T02:23:40;101776.31;;;19.39;88.15
79617;BME280;69097;52.132;5.422;2023-08-12T02:26:10;101777.13;;;19.39;88.30
79617;BME280;69097;52.132;5.422;2023-08-12T02:28:36;101778.69;;;19.40;88.26
79617;BME280;69097;52.132;5.422;2023-08-12T02:31:03;101772.22;;;19.40;88.81
79617;BME280;69097;52.132;5.422;2023-08-12T02:33:29;101770.16;;;19.40;88.43
79617;BME280;69097;52.132;5.422;2023-08-12T02:35:56;101766.38;;;19.43;88.87
79617;BME280;69097;52.132;5.422;2023-08-12T02:38:22;101768.44;;;19.43;88.91
79617;BME280;69097;52.132;5.422;2023-08-12T02:40:50;101767.16;;;19.44;88.55
79617;BME280;69097;52.132;5.422;2023-08-12T02:43:17;101759.09;;;19.42;88.80
79617;BME280;69097;52.132;5.422;2023-08-12T02:45:43;101756.25;;;19.42;88.66
79617;BME280;69097;52.132;5.422;2023-08-12T02:48:10;101755.78;;;19.44;88.67
79617;BME280;69097;52.132;5.422;2023-08-12T02:50:38;101753.72;;;19.44;89.05
79617;BME280;69097;52.132;5.422;2023-08-12T02:53:07;101757.38;;;19.45;89.04
79617;BME280;69097;52.132;5.422;2023-08-12T02:55:34;101748.84;;;19.45;89.11
79617;BME280;69097;52.132;5.422;2023-08-12T02:58:01;101747.72;;;19.42;89.39
79617;BME280;69097;52.132;5.422;2023-08-12T03:00:28;101750.56;;;19.42;89.30
79617;BME280;69097;52.132;5.422;2023-08-12T03:02:54;101740.44;;;19.41;89.48
79617;BME280;69097;52.132;5.422;2023-08-12T03:05:21;101741.22;;;19.42;89.36
79617;BME280;69097;52.132;5.422;2023-08-12T03:07:49;101731.91;;;19.41;89.16
79617;BME280;69097;52.132;5.422;2023-08-12T03:10:16;101731.91;;;19.41;89.88
79617;BME280;69097;52.132;5.422;2023-08-12T03:12:42;101730.63;;;19.42;89.98
79617;BME280;69097;52.132;5.422;2023-08-12T03:15:10;101727.31;;;19.44;89.79
79617;BME280;69097;52.132;5.422;2023-08-12T03:17:37;101730.16;;;19.44;89.77
79617;BME280;69097;52.132;5.422;2023-08-12T03:20:06;101730.16;;;19.44;89.83
79617;BME280;69097;52.132;5.422;2023-08-12T03:22:38;101724.00;;;19.45;90.01
79617;BME280;69097;52.132;5.422;2023-08-12T03:25:06;101718.28;;;19.45;89.99
79617;BME280;69097;52.132;5.422;2023-08-12T03:27:32;101719.91;;;19.46;90.09
79617;BME280;69097;52.132;5.422;2023-08-12T03:29:59;101713.41;;;19.46;90.20
79617;BME280;69097;52.132;5.422;2023-08-12T03:32:28;101721.94;;;19.46;90.23
79617;BME280;69097;52.132;5.422;2023-08-12T03:34:54;101710.56;;;19.46;90.50
79617;BME280;69097;52.132;5.422;2023-08-12T03:37:21;101707.72;;;19.46;89.93
79617;BME280;69097;52.132;5.422;2023-08-12T03:39:47;101711.34;;;19.46;90.47
79617;BME280;69097;52.132;5.422;2023-08-12T03:42:14;101701.06;;;19.49;90.00
79617;BME280;69097;52.132;5.422;2023-08-12T03:44:43;101694.59;;;19.48;90.91
79617;BME280;69097;52.132;5.422;2023-08-12T03:47:10;101700.59;;;19.50;90.80
79617;BME280;69097;52.132;5.422;2023-08-12T03:49:37;101695.22;;;19.52;90.62
79617;BME280;69097;52.132;5.422;2023-08-12T03:52:04;101692.69;;;19.54;90.83
79617;BME280;69097;52.132;5.422;2023-08-12T03:54:33;101697.09;;;19.55;91.05
79617;BME280;69097;52.132;5.422;2023-08-12T03:57:00;101690.16;;;19.56;90.91
79617;BME280;69097;52.132;5.422;2023-08-12T03:59:26;101686.03;;;19.57;90.73
79617;BME280;69097;52.132;5.422;2023-08-12T04:01:53;101685.25;;;19.57;90.92
79617;BME280;69097;52.132;5.422;2023-08-12T04:04:19;101677.19;;;19.55;91.10
79617;BME280;69097;52.132;5.422;2023-08-12T04:06:46;101688.56;;;19.55;91.03
79617;BME280;69097;52.132;5.422;2023-08-12T04:09:14;101681.63;;;19.56;90.59
79617;BME280;69097;52.132;5.422;2023-08-12T04:11:41;101673.09;;;19.56;91.14
79617;BME280;69097;52.132;5.422;2023-08-12T04:14:08;101659.94;;;19.59;90.27
79617;BME280;69097;52.132;5.422;2023-08-12T04:16:35;101663.75;;;19.56;90.79
79617;BME280;69097;52.132;5.422;2023-08-12T04:19:04;101659.81;;;19.53;90.85
79617;BME280;69097;52.132;5.422;2023-08-12T04:21:30;101660.59;;;19.54;91.52
79617;BME280;69097;52.132;5.422;2023-08-12T04:23:57;101670.25;;;19.56;91.76
79617;BME280;69097;52.132;5.422;2023-08-12T04:26:23;101662.03;;;19.58;91.13
79617;BME280;69097;52.132;5.422;2023-08-12T04:28:50;101660.75;;;19.59;91.24
79617;BME280;69097;52.132;5.422;2023-08-12T04:31:16;101657.41;;;19.61;91.59
79617;BME280;69097;52.132;5.422;2023-08-12T04:33:44;101665.00;;;19.64;91.17
79617;BME280;69097;52.132;5.422;2023-08-12T04:36:13;101666.91;;;19.67;91.09
79617;BME280;69097;52.132;5.422;2023-08-12T04:38:40;101649.03;;;19.67;91.40
79617;BME280;69097;52.132;5.422;2023-08-12T04:41:06;101655.06;;;19.69;91.19
79617;BME280;69097;52.132;5.422;2023-08-12T04:43:33;101646.03;;;19.70;91.71
79617;BME280;69097;52.132;5.422;2023-08-12T04:46:00;101632.88;;;19.73;91.78
79617;BME280;69097;52.132;5.422;2023-08-12T04:48:26;101627.50;;;19.75;92.35
79617;BME280;69097;52.132;5.422;2023-08-12T04:50:53;101619.59;;;19.79;91.77
79617;BME280;69097;52.132;5.422;2023-08-12T04:53:26;101612.63;;;19.80;92.29
79617;BME280;69097;52.132;5.422;2023-08-12T04:55:54;101615.78;;;19.82;92.04
79617;BME280;69097;52.132;5.422;2023-08-12T04:58:21;101612.47;;;19.83;92.05
79617;BME280;69097;52.132;5.422;2023-08-12T05:00:47;101609.13;;;19.85;92.36
79617;BME280;69097;52.132;5.422;2023-08-12T05:03:14;101607.84;;;19.86;92.29
79617;BME280;69097;52.132;5.422;2023-08-12T05:05:41;101611.81;;;19.88;92.40
79617;BME280;69097;52.132;5.422;2023-08-12T05:08:07;101608.16;;;19.88;92.35
79617;BME280;69097;52.132;5.422;2023-08-12T05:10:34;101601.53;;;19.91;92.13
79617;BME280;69097;52.132;5.422;2023-08-12T05:13:00;101597.88;;;19.90;91.89
79617;BME280;69097;52.132;5.422;2023-08-12T05:15:27;101605.63;;;19.90;92.05
79617;BME280;69097;52.132;5.422;2023-08-12T05:17:53;101608.47;;;19.90;92.43
79617;BME280;69097;52.132;5.422;2023-08-12T05:20:20;101609.28;;;19.90;91.85
79617;BME280;69097;52.132;5.422;2023-08-12T05:22:47;101610.84;;;19.91;92.67
79617;BME280;69097;52.132;5.422;2023-08-12T05:25:14;101610.34;;;19.93;92.18
79617;BME280;69097;52.132;5.422;2023-08-12T05:27:40;101615.28;;;19.92;92.25
79617;BME280;69097;52.132;5.422;2023-08-12T05:30:10;101607.81;;;19.95;92.56
79617;BME280;69097;52.132;5.422;2023-08-12T05:32:37;101613.53;;;19.95;92.34
79617;BME280;69097;52.132;5.422;2023-08-12T05:35:03;101612.28;;;19.96;92.30
79617;BME280;69097;52.132;5.422;2023-08-12T05:37:30;101609.72;;;19.98;92.74
79617;BME280;69097;52.132;5.422;2023-08-12T05:39:57;101616.69;;;19.97;92.73
79617;BME280;69097;52.132;5.422;2023-08-12T05:42:23;101613.34;;;19.98;92.64
79617;BME280;69097;52.132;5.422;2023-08-12T05:44:50;101614.16;;;19.99;92.42
79617;BME280;69097;52.132;5.422;2023-08-12T05:47:16;101615.72;;;20.00;92.71
79617;BME280;69097;52.132;5.422;2023-08-12T05:49:43;101614.94;;;19.99;92.18
79617;BME280;69097;52.132;5.422;2023-08-12T05:52:09;101615.41;;;19.98;92.67
79617;BME280;69097;52.132;5.422;2023-08-12T05:54:36;101608.63;;;19.95;92.54
79617;BME280;69097;52.132;5.422;2023-08-12T05:57:03;101605.78;;;19.95;92.50
79617;BME280;69097;52.132;5.422;2023-08-12T05:59:30;101613.53;;;19.95;92.36
79617;BME280;69097;52.132;5.422;2023-08-12T06:01:56;101606.25;;;19.94;93.09
79617;BME280;69097;52.132;5.422;2023-08-12T06:04:23;101601.81;;;19.93;92.95
79617;BME280;69097;52.132;5.422;2023-08-12T06:06:49;101601.03;;;19.92;93.00
79617;BME280;69097;52.132;5.422;2023-08-12T06:09:16;101608.78;;;19.92;93.31
79617;BME280;69097;52.132;5.422;2023-08-12T06:11:42;101607.22;;;19.91;93.10
79617;BME280;69097;52.132;5.422;2023-08-12T06:14:14;101607.22;;;19.91;93.58
79617;BME280;69097;52.132;5.422;2023-08-12T06:16:41;101604.66;;;19.93;93.28
79617;BME280;69097;52.132;5.422;2023-08-12T06:19:08;101607.22;;;19.91;92.84
79617;BME280;69097;52.132;5.422;2023-08-12T06:21:34;101595.84;;;19.91;93.37
79617;BME280;69097;52.132;5.422;2023-08-12T06:24:01;101603.09;;;19.92;92.97
79617;BME280;69097;52.132;5.422;2023-08-12T06:26:27;101601.53;;;19.91;93.46
79617;BME280;69097;52.132;5.422;2023-08-12T06:28:55;101604.81;;;19.89;93.80
79617;BME280;69097;52.132;5.422;2023-08-12T06:31:21;101608.47;;;19.90;93.08
79617;BME280;69097;52.132;5.422;2023-08-12T06:33:48;101610.69;;;19.86;93.27
79617;BME280;69097;52.132;5.422;2023-08-12T06:36:14;101614.03;;;19.84;93.68
79617;BME280;69097;52.132;5.422;2023-08-12T06:38:41;101615.78;;;19.82;93.67
79617;BME280;69097;52.132;5.422;2023-08-12T06:41:08;101613.91;;;19.79;93.74
79617;BME280;69097;52.132;5.422;2023-08-12T06:43:36;101613.25;;;19.75;93.95
79617;BME280;69097;52.132;5.422;2023-08-12T06:46:02;101617.88;;;19.72;94.09
79617;BME280;69097;52.132;5.422;2023-08-12T06:48:29;101605.38;;;19.70;93.89
79617;BME280;69097;52.132;5.422;2023-08-12T06:50:56;101599.34;;;19.68;94.18
79617;BME280;69097;52.132;5.422;2023-08-12T06:53:22;101599.34;;;19.68;93.58
79617;BME280;69097;52.132;5.422;2023-08-12T06:55:49;101591.63;;;19.68;93.77
79617;BME280;69097;52.132;5.422;2023-08-12T06:58:15;101592.41;;;19.69;94.20
79617;BME280;69097;52.132;5.422;2023-08-12T07:00:42;101590.06;;;19.67;93.96
79617;BME280;69097;52.132;5.422;2023-08-12T07:03:09;101595.25;;;19.69;94.00
79617;BME280;69097;52.132;5.422;2023-08-12T07:05:36;101590.34;;;19.69;93.93
79617;BME280;69097;52.132;5.422;2023-08-12T07:08:04;101586.72;;;19.69;93.89
79617;BME280;69097;52.132;5.422;2023-08-12T07:10:31;101593.66;;;19.68;94.27
79617;BME280;69097;52.132;5.422;2023-08-12T07:12:58;101595.25;;;19.69;94.13
79617;BME280;69097;52.132;5.422;2023-08-12T07:15:25;101588.78;;;19.68;94.50
79617;BME280;69097;52.132;5.422;2023-08-12T07:17:52;101583.06;;;19.68;93.86
79617;BME280;69097;52.132;5.422;2023-08-12T07:20:18;101579.44;;;19.68;94.51
79617;BME280;69097;52.132;5.422;2023-08-12T07:22:45;101575.00;;;19.67;94.35
79617;BME280;69097;52.132;5.422;2023-08-12T07:25:13;101569.31;;;19.67;94.20
79617;BME280;69097;52.132;5.422;2023-08-12T07:27:39;101563.63;;;19.67;94.14
79617;BME280;69097;52.132;5.422;2023-08-12T07:30:06;101570.88;;;19.68;94.57
79617;BME280;69097;52.132;5.422;2023-08-12T07:32:35;101570.56;;;19.66;94.54
79617;BME280;69097;52.132;5.422;2023-08-12T07:35:02;101570.13;;;19.67;94.63
79617;BME280;69097;52.132;5.422;2023-08-12T07:37:29;101568.03;;;19.68;94.18
79617;BME280;69097;52.132;5.422;2023-08-12T07:39:56;101562.34;;;19.68;94.32
79617;BME280;69097;52.132;5.422;2023-08-12T07:42:22;101562.34;;;19.68;94.52
79617;BME280;69097;52.132;5.422;2023-08-12T07:44:49;101557.44;;;19.68;94.68
79617;BME280;69097;52.132;5.422;2023-08-12T07:47:17;101556.97;;;19.70;94.14
79617;BME280;69097;52.132;5.422;2023-08-12T07:49:43;101551.28;;;19.70;93.90
79617;BME280;69097;52.132;5.422;2023-08-12T07:52:10;101552.56;;;19.69;94.03
79617;BME280;69097;52.132;5.422;2023-08-12T07:54:37;101552.56;;;19.69;94.40
79617;BME280;69097;52.132;5.422;2023-08-12T07:57:04;101556.97;;;19.70;94.19
79617;BME280;69097;52.132;5.422;2023-08-12T07:59:31;101558.53;;;19.71;94.13
79617;BME280;69097;52.132;5.422;2023-08-12T08:01:58;101563.47;;;19.70;94.64
79617;BME280;69097;52.132;5.422;2023-08-12T08:04:26;101561.38;;;19.71;94.42
79617;BME280;69097;52.132;5.422;2023-08-12T08:06:55;101564.22;;;19.71;94.32
79617;BME280;69097;52.132;5.422;2023-08-12T08:09:22;101567.06;;;19.71;94.33
79617;BME280;69097;52.132;5.422;2023-08-12T08:11:48;101561.09;;;19.69;94.32
79617;BME280;69097;52.132;5.422;2023-08-12T08:14:15;101558.25;;;19.69;94.86
79617;BME280;69097;52.132;5.422;2023-08-12T08:16:42;101566.31;;;19.70;94.36
79617;BME280;69097;52.132;5.422;2023-08-12T08:19:08;101558.84;;;19.73;95.14
79617;BME280;69097;52.132;5.422;2023-08-12T08:21:39;101566.91;;;19.74;95.09
79617;BME280;69097;52.132;5.422;2023-08-12T08:24:06;101566.44;;;19.76;95.30
79617;BME280;69097;52.132;5.422;2023-08-12T08:26:33;101562.34;;;19.77;94.63
79617;BME280;69097;52.132;5.422;2023-08-12T08:28:59;101561.84;;;19.78;94.91
79617;BME280;69097;52.132;5.422;2023-08-12T08:31:26;101565.50;;;19.79;94.49
79617;BME280;69097;52.132;5.422;2023-08-12T08:33:54;101555.34;;;19.78;94.75
79617;BME280;69097;52.132;5.422;2023-08-12T08:36:21;101553.63;;;19.80;95.11
79617;BME280;69097;52.132;5.422;2023-08-12T08:38:47;101567.22;;;19.85;95.12
79617;BME280;69097;52.132;5.422;2023-08-12T08:41:15;101562.75;;;19.84;94.99
79617;BME280;69097;52.132;5.422;2023-08-12T08:43:43;101574.31;;;19.81;95.04
79617;BME280;69097;52.132;5.422;2023-08-12T08:46:14;101572.75;;;19.80;95.20
79617;BME280;69097;52.132;5.422;2023-08-12T08:48:43;101573.88;;;19.82;95.30
79617;BME280;69097;52.132;5.422;2023-08-12T08:51:11;101574.94;;;19.85;95.64
79617;BME280;69097;52.132;5.422;2023-08-12T08:53:40;101569.75;;;19.83;95.21
79617;BME280;69097;52.132;5.422;2023-08-12T08:56:11;101578.75;;;19.82;95.36
79617;BME280;69097;52.132;5.422;2023-08-12T08:58:41;101582.56;;;19.79;94.98
79617;BME280;69097;52.132;5.422;2023-08-12T09:01:10;101579.91;;;19.75;95.14
79617;BME280;69097;52.132;5.422;2023-08-12T09:03:40;101582.91;;;19.72;95.10
79617;BME280;69097;52.132;5.422;2023-08-12T09:06:09;101591.94;;;19.70;95.21
79617;BME280;69097;52.132;5.422;2023-08-12T09:08:37;101608.38;;;19.66;95.43
79617;BME280;69097;52.132;5.422;2023-08-12T09:11:06;101609.81;;;19.62;94.51
79617;BME280;69097;52.132;5.422;2023-08-12T09:13:34;101609.66;;;19.56;93.38
79617;BME280;69097;52.132;5.422;2023-08-12T09:16:01;101613.47;;;19.44;92.39
79617;BME280;69097;52.132;5.422;2023-08-12T09:18:29;101625.66;;;19.26;91.33
79617;BME280;69097;52.132;5.422;2023-08-12T09:20:55;101622.00;;;19.17;90.86
79617;BME280;69097;52.132;5.422;2023-08-12T09:23:22;101614.25;;;19.08;90.74
79617;BME280;69097;52.132;5.422;2023-08-12T09:25:49;101603.19;;;19.01;90.83
79617;BME280;69097;52.132;5.422;2023-08-12T09:28:15;101598.44;;;18.98;91.22
79617;BME280;69097;52.132;5.422;2023-08-12T09:30:54;101595.91;;;19.00;91.98
79617;BME280;69097;52.132;5.422;2023-08-12T09:33:25;101608.88;;;19.01;91.03
79617;BME280;69097;52.132;5.422;2023-08-12T09:35:56;101617.56;;;18.98;91.17
79617;BME280;69097;52.132;5.422;2023-08-12T09:38:23;101615.22;;;18.96;91.37
79617;BME280;69097;52.132;5.422;2023-08-12T09:40:57;101621.34;;;18.95;92.30
79617;BME280;69097;52.132;5.422;2023-08-12T09:43:27;101629.44;;;18.96;91.63
79617;BME280;69097;52.132;5.422;2023-08-12T09:45:57;101632.41;;;19.02;91.42
79617;BME280;69097;52.132;5.422;2023-08-12T09:48:26;101640.00;;;19.05;91.58
79617;BME280;69097;52.132;5.422;2023-08-12T09:50:54;101642.84;;;19.05;90.60
79617;BME280;69097;52.132;5.422;2023-08-12T09:53:22;101632.91;;;19.09;89.84
79617;BME280;69097;52.132;5.422;2023-08-12T09:55:52;101653.13;;;19.11;91.11
79617;BME280;69097;52.132;5.422;2023-08-12T09:58:22;101651.09;;;19.21;91.16
79617;BME280;69097;52.132;5.422;2023-08-12T10:00:53;101660.88;;;19.20;89.59
79617;BME280;69097;52.132;5.422;2023-08-12T10:03:20;101661.34;;;19.09;89.15
79617;BME280;69097;52.132;5.422;2023-08-12T10:05:48;101653.91;;;19.03;89.95
79617;BME280;69097;52.132;5.422;2023-08-12T10:08:17;101663.06;;;18.98;90.28
79617;BME280;69097;52.132;5.422;2023-08-12T10:10:47;101660.69;;;19.05;90.87
79617;BME280;69097;52.132;5.422;2023-08-12T10:13:28;101652.16;;;19.23;90.92
79617;BME280;69097;52.132;5.422;2023-08-12T10:15:55;101650.94;;;19.42;90.25
79617;BME280;69097;52.132;5.422;2023-08-12T10:18:22;101634.47;;;19.65;90.29
79617;BME280;69097;52.132;5.422;2023-08-12T10:20:49;101628.09;;;19.97;90.56
79617;BME280;69097;52.132;5.422;2023-08-12T10:23:17;101640.06;;;20.10;87.42
79617;BME280;69097;52.132;5.422;2023-08-12T10:25:47;101647.34;;;20.20;89.11
79617;BME280;69097;52.132;5.422;2023-08-12T10:28:18;101650.13;;;20.38;86.75
79617;BME280;69097;52.132;5.422;2023-08-12T10:30:45;101651.88;;;20.68;88.12
79617;BME280;69097;52.132;5.422;2023-08-12T10:33:14;101640.66;;;20.88;84.38
79617;BME280;69097;52.132;5.422;2023-08-12T10:35:45;101654.38;;;20.99;82.80
79617;BME280;69097;52.132;5.422;2023-08-12T10:38:14;101637.38;;;21.04;83.48
79617;BME280;69097;52.132;5.422;2023-08-12T10:40:42;101640.16;;;21.37;83.13
79617;BME280;69097;52.132;5.422;2023-08-12T10:43:10;101639.97;;;21.40;82.52
79617;BME280;69097;52.132;5.422;2023-08-12T10:48:16;101637.50;;;21.10;82.91
79617;BME280;69097;52.132;5.422;2023-08-12T10:50:45;101657.53;;;21.24;82.89
79617;BME280;69097;52.132;5.422;2023-08-12T10:53:29;101650.63;;;21.16;80.64
79617;BME280;69097;52.132;5.422;2023-08-12T10:56:02;101655.09;;;21.32;81.07
79617;BME280;69097;52.132;5.422;2023-08-12T10:58:47;101648.97;;;21.62;82.37
79617;BME280;69097;52.132;5.422;2023-08-12T11:01:17;101644.19;;;21.98;81.82
79617;BME280;69097;52.132;5.422;2023-08-12T11:03:45;101638.25;;;22.16;80.08
79617;BME280;69097;52.132;5.422;2023-08-12T11:06:12;101636.47;;;22.04;78.15
79617;BME280;69097;52.132;5.422;2023-08-12T11:08:47;101651.09;;;21.91;79.41
79617;BME280;69097;52.132;5.422;2023-08-12T11:11:21;101651.06;;;22.06;80.07
79617;BME280;69097;52.132;5.422;2023-08-12T11:13:58;101643.66;;;22.28;80.49
79617;BME280;69097;52.132;5.422;2023-08-12T11:16:36;101644.34;;;22.38;77.15
79617;BME280;69097;52.132;5.422;2023-08-12T11:19:03;101640.47;;;22.41;73.38
79617;BME280;69097;52.132;5.422;2023-08-12T11:21:30;101641.91;;;22.51;79.16
79617;BME280;69097;52.132;5.422;2023-08-12T11:23:56;101637.72;;;22.81;81.08
79617;BME280;69097;52.132;5.422;2023-08-12T11:26:23;101639.72;;;22.95;79.26
79617;BME280;69097;52.132;5.422;2023-08-12T11:28:50;101633.59;;;23.02;73.63
79617;BME280;69097;52.132;5.422;2023-08-12T11:31:17;101631.03;;;23.04;70.29
79617;BME280;69097;52.132;5.422;2023-08-12T11:33:48;101634.00;;;23.15;72.64
79617;BME280;69097;52.132;5.422;2023-08-12T11:36:15;101634.44;;;22.88;68.17
79617;BME280;69097;52.132;5.422;2023-08-12T11:38:42;101642.78;;;22.71;69.06
79617;BME280;69097;52.132;5.422;2023-08-12T11:41:10;101645.47;;;22.95;74.51
79617;BME280;69097;52.132;5.422;2023-08-12T11:43:37;101641.38;;;23.22;68.85
79617;BME280;69097;52.132;5.422;2023-08-12T11:46:05;101635.59;;;23.16;66.35
79617;BME280;69097;52.132;5.422;2023-08-12T11:48:46;101633.44;;;23.11;70.99
79617;BME280;69097;52.132;5.422;2023-08-12T11:51:18;101630.78;;;23.48;72.98
79617;BME280;69097;52.132;5.422;2023-08-12T11:53:45;101627.53;;;23.60;67.56
79617;BME280;69097;52.132;5.422;2023-08-12T11:56:12;101629.78;;;23.51;68.92
79617;BME280;69097;52.132;5.422;2023-08-12T11:58:38;101635.94;;;23.44;68.58
79617;BME280;69097;52.132;5.422;2023-08-12T12:01:18;101636.59;;;23.33;68.21
79617;BME280;69097;52.132;5.422;2023-08-12T12:03:50;101640.41;;;23.45;67.95
79617;BME280;69097;52.132;5.422;2023-08-12T12:06:28;101640.13;;;23.68;69.00
79617;BME280;69097;52.132;5.422;2023-08-12T12:08:55;101639.84;;;23.92;71.18
79617;BME280;69097;52.132;5.422;2023-08-12T12:11:21;101632.75;;;23.87;66.71
79617;BME280;69097;52.132;5.422;2023-08-12T12:13:48;101642.19;;;23.93;66.34
79617;BME280;69097;52.132;5.422;2023-08-12T12:16:14;101640.25;;;24.05;68.60
79617;BME280;69097;52.132;5.422;2023-08-12T12:18:41;101635.38;;;24.16;65.99
79617;BME280;69097;52.132;5.422;2023-08-12T12:21:08;101643.13;;;24.05;63.58
79617;BME280;69097;52.132;5.422;2023-08-12T12:23:36;101640.66;;;23.98;61.85
79617;BME280;69097;52.132;5.422;2023-08-12T12:26:03;101639.00;;;23.86;59.92
79617;BME280;69097;52.132;5.422;2023-08-12T12:28:31;101644.38;;;23.98;61.43
79617;BME280;69097;52.132;5.422;2023-08-12T12:30:58;101641.00;;;24.05;62.30
79617;BME280;69097;52.132;5.422;2023-08-12T12:33:24;101640.25;;;24.05;61.30
79617;BME280;69097;52.132;5.422;2023-08-12T12:35:51;101633.53;;;24.13;61.79
79617;BME280;69097;52.132;5.422;2023-08-12T12:38:26;101642.69;;;24.17;61.67
79617;BME280;69097;52.132;5.422;2023-08-12T12:40:53;101641.34;;;24.44;62.65
79617;BME280;69097;52.132;5.422;2023-08-12T12:43:19;101637.84;;;24.66;60.55
79617;BME280;69097;52.132;5.422;2023-08-12T12:45:46;101639.28;;;24.87;63.98
79617;BME280;69097;52.132;5.422;2023-08-12T12:48:14;101640.88;;;24.93;60.18
79617;BME280;69097;52.132;5.422;2023-08-12T12:50:40;101645.38;;;25.05;61.18
79617;BME280;69097;52.132;5.422;2023-08-12T12:53:08;101647.75;;;25.07;57.80
79617;BME280;69097;52.132;5.422;2023-08-12T12:55:35;101636.13;;;24.85;62.01
79617;BME280;69097;52.132;5.422;2023-08-12T12:58:03;101648.78;;;25.04;61.36